Time;durP1;ratioP1;P1;durP2;ratioP2;P2;SDS_P1;SDS_P2;PMS_P1;PMS_P2;Temp;Humidity;BMP_temperature;BMP_pressure;BME280_temperature;BME280_humidity;BME280_pressure;Samples;Min_cycle;Max_cycle;Signal;HPM_P1;HPM_P2
2021/10/22 00:00:18;;;;;;;14.97;2.53;;;;;;;;;;5056653;28;20393;-87
2021/10/22 00:02:43;;;;;;;11.27;2.40;;;;;;;;;;5029997;28;20025;-87
2021/10/22 00:05:08;;;;;;;14.70;2.70;;;;;;;;;;5067860;28;20021;-87
2021/10/22 00:07:33;;;;;;;14.10;2.77;;;;;;;;;;5035933;28;20065;-87
2021/10/22 00:09:59;;;;;;;15.57;3.03;;;;;;;;;;5067862;28;20485;-87
2021/10/22 00:12:24;;;;;;;12.47;3.53;;;;;;;;;;5068172;28;20033;-87
2021/10/22 00:14:49;;;;;;;11.73;2.67;;;;;;;;;;5034205;28;20469;-87
2021/10/22 00:17:15;;;;;;;9.33;2.70;;;;;;;;;;5034583;28;20025;-87
2021/10/22 00:19:40;;;;;;;8.07;2.37;;;;;;;;;;5034426;28;20021;-86
2021/10/22 00:22:05;;;;;;;15.60;2.67;;;;;;;;;;5030129;28;20025;-87
2021/10/22 00:24:31;;;;;;;15.53;3.23;;;;;;;;;;5034569;28;20024;-87
2021/10/22 00:26:56;;;;;;;19.93;3.10;;;;;;;;;;5067168;28;20033;-87
2021/10/22 00:29:21;;;;;;;15.30;2.77;;;;;;;;;;5062791;28;20029;-87
2021/10/22 00:31:46;;;;;;;14.10;3.00;;;;;;;;;;5025274;28;20021;-87
2021/10/22 00:34:11;;;;;;;9.33;2.73;;;;;;;;;;5031002;28;20022;-87
2021/10/22 00:36:37;;;;;;;14.27;2.73;;;;;;;;;;5023440;28;20033;-87
2021/10/22 00:39:03;;;;;;;17.83;2.80;;;;;;;;;;5067406;28;20049;-87
2021/10/22 00:41:28;;;;;;;6.73;2.47;;;;;;;;;;5066431;28;20025;-87
2021/10/22 00:43:53;;;;;;;19.03;3.40;;;;;;;;;;5033988;28;20010;-87
2021/10/22 00:46:19;;;;;;;10.60;2.13;;;;;;;;;;5021158;28;20431;-87
2021/10/22 00:48:44;;;;;;;14.93;2.50;;;;;;;;;;5067041;28;20018;-86
2021/10/22 00:51:13;;;;;;;10.23;2.03;;;;;;;;;;5066584;28;20028;-87
2021/10/22 00:53:39;;;;;;;13.37;2.10;;;;;;;;;;5033660;28;20022;-87
2021/10/22 00:56:13;;;;;;;15.27;2.83;;;;;;;;;;5028543;28;20022;-87
2021/10/22 00:58:39;;;;;;;12.60;2.87;;;;;;;;;;5027857;28;20029;-87
2021/10/22 01:01:05;;;;;;;13.73;2.77;;;;;;;;;;5033327;28;20028;-87
2021/10/22 01:03:30;;;;;;;15.03;2.70;;;;;;;;;;5033563;28;20010;-87
2021/10/22 01:05:59;;;;;;;9.73;2.10;;;;;;;;;;5056465;28;20014;-87
2021/10/22 01:08:24;;;;;;;15.03;2.67;;;;;;;;;;5063720;28;20021;-87
2021/10/22 01:10:50;;;;;;;17.70;2.43;;;;;;;;;;5058183;28;20044;-87
2021/10/22 01:13:15;;;;;;;14.53;3.10;;;;;;;;;;5028097;28;20426;-87
2021/10/22 01:15:40;;;;;;;10.53;2.10;;;;;;;;;;5063695;28;20381;-87
2021/10/22 01:18:06;;;;;;;13.47;2.70;;;;;;;;;;5066916;28;20021;-87
2021/10/22 01:20:31;;;;;;;12.47;2.47;;;;;;;;;;5066473;28;20030;-87
2021/10/22 01:22:56;;;;;;;12.53;2.37;;;;;;;;;;5033267;28;20029;-87
2021/10/22 01:25:25;;;;;;;9.40;2.07;;;;;;;;;;5058174;28;20447;-87
2021/10/22 01:27:50;;;;;;;19.20;2.37;;;;;;;;;;5033141;28;20025;-87
2021/10/22 01:30:17;;;;;;;10.33;2.57;;;;;;;;;;5034495;28;20013;-87
2021/10/22 01:32:43;;;;;;;11.40;2.27;;;;;;;;;;5033226;28;20070;-87
2021/10/22 01:35:09;;;;;;;16.37;2.17;;;;;;;;;;5066526;28;20024;-87
2021/10/22 01:37:34;;;;;;;10.60;2.17;;;;;;;;;;5066503;28;20017;-87
2021/10/22 01:40:00;;;;;;;12.30;2.77;;;;;;;;;;5066336;28;20021;-87
2021/10/22 01:42:25;;;;;;;16.43;2.60;;;;;;;;;;5065554;28;20025;-87
2021/10/22 01:44:50;;;;;;;15.30;2.27;;;;;;;;;;5032969;28;20020;-87
2021/10/22 01:47:17;;;;;;;12.83;2.27;;;;;;;;;;5032866;28;20436;-87
2021/10/22 01:49:42;;;;;;;13.83;2.03;;;;;;;;;;5034100;28;20376;-87
2021/10/22 01:52:08;;;;;;;17.87;2.03;;;;;;;;;;5032841;28;20025;-87
2021/10/22 01:54:33;;;;;;;15.67;2.17;;;;;;;;;;5032842;28;20393;-88
2021/10/22 01:56:58;;;;;;;11.73;1.90;;;;;;;;;;5032778;28;20444;-87
2021/10/22 01:59:23;;;;;;;9.70;2.07;;;;;;;;;;5051774;28;20022;-87
2021/10/22 02:01:49;;;;;;;12.33;2.17;;;;;;;;;;5065993;28;20018;-87
2021/10/22 02:04:14;;;;;;;12.90;2.40;;;;;;;;;;5066084;28;20021;-87
2021/10/22 02:06:39;;;;;;;17.90;2.33;;;;;;;;;;5065802;28;20024;-87
2021/10/22 02:09:04;;;;;;;22.17;2.90;;;;;;;;;;5065953;28;20366;-86
2021/10/22 02:11:30;;;;;;;11.27;2.20;;;;;;;;;;5065823;28;20087;-86
2021/10/22 02:13:55;;;;;;;12.60;2.63;;;;;;;;;;5032790;28;20032;-87
2021/10/22 02:16:20;;;;;;;11.80;2.20;;;;;;;;;;5032259;28;20029;-87
2021/10/22 02:18:45;;;;;;;20.77;2.03;;;;;;;;;;5032646;28;20018;-87
2021/10/22 02:21:11;;;;;;;8.57;1.87;;;;;;;;;;5032405;28;20029;-87
2021/10/22 02:23:36;;;;;;;11.30;1.90;;;;;;;;;;5065827;28;20453;-87
2021/10/22 02:26:02;;;;;;;12.63;2.80;;;;;;;;;;5055772;28;20018;-87
2021/10/22 02:28:28;;;;;;;12.47;2.50;;;;;;;;;;5028785;28;20462;-87
2021/10/22 02:30:55;;;;;;;13.83;3.17;;;;;;;;;;5032441;28;20013;-86
2021/10/22 02:33:20;;;;;;;16.23;2.90;;;;;;;;;;5065549;28;20067;-87
2021/10/22 02:35:46;;;;;;;11.60;2.63;;;;;;;;;;5065611;28;20104;-87
2021/10/22 02:38:11;;;;;;;9.93;2.30;;;;;;;;;;5065709;28;20099;-87
2021/10/22 02:40:36;;;;;;;21.67;2.53;;;;;;;;;;5032290;28;20009;-87
2021/10/22 02:43:01;;;;;;;8.63;2.00;;;;;;;;;;5031553;28;20029;-87
2021/10/22 02:45:27;;;;;;;13.90;2.53;;;;;;;;;;5032263;28;20013;-87
2021/10/22 02:47:52;;;;;;;5.23;1.70;;;;;;;;;;5032300;28;20105;-87
2021/10/22 02:50:18;;;;;;;13.13;3.20;;;;;;;;;;5032280;28;20076;-87
2021/10/22 02:52:43;;;;;;;9.03;1.97;;;;;;;;;;5019705;28;20018;-87
2021/10/22 02:55:09;;;;;;;17.70;2.43;;;;;;;;;;5036141;28;20018;-87
2021/10/22 02:57:34;;;;;;;14.30;2.17;;;;;;;;;;5069183;28;20014;-87
2021/10/22 02:59:59;;;;;;;13.70;1.80;;;;;;;;;;5036095;28;20055;-87
2021/10/22 03:02:24;;;;;;;7.03;1.90;;;;;;;;;;5035799;28;20533;-87
2021/10/22 03:04:49;;;;;;;12.70;1.83;;;;;;;;;;5035825;28;20457;-87
2021/10/22 03:07:15;;;;;;;13.40;2.73;;;;;;;;;;5069325;28;20025;-86
2021/10/22 03:09:40;;;;;;;14.50;2.40;;;;;;;;;;5035745;28;20110;-87
2021/10/22 03:12:05;;;;;;;16.73;2.57;;;;;;;;;;5068986;28;20029;-87
2021/10/22 03:14:31;;;;;;;11.93;1.93;;;;;;;;;;5035556;28;20036;-87
2021/10/22 03:16:56;;;;;;;15.27;1.90;;;;;;;;;;5035507;28;20026;-87
2021/10/22 03:19:21;;;;;;;9.17;1.57;;;;;;;;;;5068810;28;20022;-87
2021/10/22 03:21:46;;;;;;;12.30;2.03;;;;;;;;;;5035298;28;20482;-87
2021/10/22 03:24:11;;;;;;;11.07;2.07;;;;;;;;;;5068747;28;20068;-86
2021/10/22 03:26:37;;;;;;;10.23;2.60;;;;;;;;;;5035278;28;20025;-86
2021/10/22 03:29:02;;;;;;;12.57;1.93;;;;;;;;;;5035552;28;20021;-87
2021/10/22 03:31:28;;;;;;;9.30;2.00;;;;;;;;;;5068562;28;20396;-87
2021/10/22 03:33:53;;;;;;;11.43;2.20;;;;;;;;;;5068551;28;20029;-86
2021/10/22 03:36:18;;;;;;;9.53;2.00;;;;;;;;;;5068761;28;20374;-87
2021/10/22 03:38:43;;;;;;;6.40;1.77;;;;;;;;;;5035275;28;20512;-86
2021/10/22 03:41:09;;;;;;;11.53;2.03;;;;;;;;;;5036253;28;20057;-87
2021/10/22 03:43:35;;;;;;;13.60;2.63;;;;;;;;;;5035081;28;20022;-86
2021/10/22 03:46:00;;;;;;;6.33;1.90;;;;;;;;;;5035080;28;20022;-87
2021/10/22 03:48:25;;;;;;;13.47;1.90;;;;;;;;;;5068405;28;20532;-87
2021/10/22 03:50:51;;;;;;;12.60;2.20;;;;;;;;;;5063832;28;20025;-87
2021/10/22 03:53:16;;;;;;;11.70;2.53;;;;;;;;;;5025666;28;20020;-87
2021/10/22 03:55:41;;;;;;;11.00;1.90;;;;;;;;;;5034861;28;20045;-86
2021/10/22 03:58:07;;;;;;;12.60;2.23;;;;;;;;;;5034723;28;20549;-87
2021/10/22 04:00:32;;;;;;;8.03;1.87;;;;;;;;;;5035904;28;20028;-87
2021/10/22 04:02:57;;;;;;;8.93;2.03;;;;;;;;;;5068041;28;20022;-87
2021/10/22 04:05:22;;;;;;;13.30;2.30;;;;;;;;;;5033865;28;20025;-87
2021/10/22 04:07:47;;;;;;;16.57;2.27;;;;;;;;;;5067756;28;20028;-87
2021/10/22 04:10:13;;;;;;;9.80;2.23;;;;;;;;;;5034626;28;20529;-87
2021/10/22 04:12:38;;;;;;;8.87;1.70;;;;;;;;;;5068018;28;20029;-87
2021/10/22 04:15:04;;;;;;;15.47;1.60;;;;;;;;;;5067686;28;20064;-87
2021/10/22 04:17:29;;;;;;;13.83;3.60;;;;;;;;;;5034586;28;20026;-87
2021/10/22 04:19:54;;;;;;;14.37;1.90;;;;;;;;;;5067618;28;20037;-86
2021/10/22 04:22:19;;;;;;;8.67;1.47;;;;;;;;;;5034398;28;20025;-87
2021/10/22 04:24:45;;;;;;;9.77;2.10;;;;;;;;;;5034143;28;20055;-87
2021/10/22 04:27:10;;;;;;;6.00;1.53;;;;;;;;;;5034857;28;20020;-87
2021/10/22 04:29:36;;;;;;;9.43;1.73;;;;;;;;;;5034483;28;20025;-87
2021/10/22 04:32:01;;;;;;;9.80;1.93;;;;;;;;;;5034139;28;20105;-86
2021/10/22 04:34:28;;;;;;;11.40;2.17;;;;;;;;;;5034123;28;20025;-87
2021/10/22 04:37:00;;;;;;;15.40;1.97;;;;;;;;;;5034055;28;20037;-87
2021/10/22 04:42:09;;;;;;;10.67;2.00;;;;;;;;;;5035347;28;20108;-87
2021/10/22 04:44:34;;;;;;;6.80;1.77;;;;;;;;;;5067465;28;20048;-86
2021/10/22 04:47:00;;;;;;;7.97;1.60;;;;;;;;;;5033974;28;20049;-87
2021/10/22 04:49:25;;;;;;;7.90;1.30;;;;;;;;;;5067176;28;20063;-86
2021/10/22 04:51:50;;;;;;;13.93;1.80;;;;;;;;;;5067207;28;20026;-86
2021/10/22 04:54:15;;;;;;;10.27;1.60;;;;;;;;;;5034877;28;20071;-86
2021/10/22 04:56:40;;;;;;;13.47;2.03;;;;;;;;;;5033942;28;20465;-87
2021/10/22 04:59:06;;;;;;;11.13;1.90;;;;;;;;;;5034771;28;20021;-87
2021/10/22 05:01:31;;;;;;;12.27;1.77;;;;;;;;;;5033427;28;20461;-87
2021/10/22 05:03:56;;;;;;;4.80;1.40;;;;;;;;;;5067159;28;20077;-87
2021/10/22 05:06:22;;;;;;;6.60;1.70;;;;;;;;;;5066444;28;20409;-87
2021/10/22 05:08:47;;;;;;;5.97;1.43;;;;;;;;;;5033484;28;20350;-87
2021/10/22 05:11:12;;;;;;;9.47;1.67;;;;;;;;;;5066569;28;20032;-86
2021/10/22 05:13:37;;;;;;;12.43;1.80;;;;;;;;;;5033532;28;20479;-87
2021/10/22 05:16:02;;;;;;;5.93;1.77;;;;;;;;;;5033383;28;20025;-87
2021/10/22 05:18:29;;;;;;;9.93;1.73;;;;;;;;;;5034478;28;20079;-86
2021/10/22 05:20:54;;;;;;;5.83;1.43;;;;;;;;;;5066479;28;20397;-87
2021/10/22 05:23:19;;;;;;;9.90;1.87;;;;;;;;;;5064961;28;20026;-87
2021/10/22 05:25:44;;;;;;;9.80;3.23;;;;;;;;;;5066644;28;20024;-87
2021/10/22 05:28:10;;;;;;;14.57;4.40;;;;;;;;;;5033297;28;20080;-87
2021/10/22 05:30:35;;;;;;;25.57;6.60;;;;;;;;;;5032956;28;20010;-87
2021/10/22 05:33:00;;;;;;;37.70;8.93;;;;;;;;;;5032772;28;20057;-86
2021/10/22 05:35:26;;;;;;;13.47;3.53;;;;;;;;;;5030672;28;20354;-87
2021/10/22 05:37:51;;;;;;;11.60;1.73;;;;;;;;;;5022618;28;20105;-87
2021/10/22 05:40:16;;;;;;;12.33;2.27;;;;;;;;;;5032811;28;20025;-87
2021/10/22 05:42:41;;;;;;;9.80;1.80;;;;;;;;;;5032971;28;20108;-87
2021/10/22 05:45:07;;;;;;;12.63;1.70;;;;;;;;;;5066195;28;20377;-86
2021/10/22 05:47:32;;;;;;;11.50;2.20;;;;;;;;;;5066050;28;20029;-87
2021/10/22 05:49:58;;;;;;;8.07;1.67;;;;;;;;;;5032622;28;20453;-87
2021/10/22 05:52:23;;;;;;;7.67;1.43;;;;;;;;;;5066049;28;20369;-87
2021/10/22 05:54:48;;;;;;;9.50;1.40;;;;;;;;;;5032742;28;20071;-87
2021/10/22 05:57:14;;;;;;;11.30;1.83;;;;;;;;;;5065881;28;20025;-87
2021/10/22 05:59:39;;;;;;;10.90;1.60;;;;;;;;;;5062006;28;20437;-87
2021/10/22 06:02:04;;;;;;;9.30;1.87;;;;;;;;;;5066233;28;20028;-87
2021/10/22 06:04:29;;;;;;;13.20;2.03;;;;;;;;;;5032696;28;20049;-86
2021/10/22 06:06:55;;;;;;;6.30;1.57;;;;;;;;;;5066112;28;20051;-87
2021/10/22 06:09:20;;;;;;;9.60;1.73;;;;;;;;;;5032677;28;20033;-87
2021/10/22 06:11:48;;;;;;;9.10;1.40;;;;;;;;;;5032300;28;20072;-87
2021/10/22 06:14:14;;;;;;;17.43;2.10;;;;;;;;;;5065746;28;20029;-86
2021/10/22 06:16:39;;;;;;;9.73;1.63;;;;;;;;;;5031192;28;20031;-86
2021/10/22 06:19:04;;;;;;;9.20;1.87;;;;;;;;;;5031453;28;20033;-86
2021/10/22 06:21:54;;;;;;;9.80;1.63;;;;;;;;;;5027402;28;20030;-86
2021/10/22 06:24:19;;;;;;;9.77;1.93;;;;;;;;;;5022627;28;20028;-86
2021/10/22 06:26:44;;;;;;;11.50;1.57;;;;;;;;;;5031691;28;20022;-86
2021/10/22 06:29:11;;;;;;;6.90;1.60;;;;;;;;;;5070918;28;20021;-87
2021/10/22 06:31:38;;;;;;;6.47;1.60;;;;;;;;;;5071688;28;20025;-86
2021/10/22 06:34:03;;;;;;;8.40;1.60;;;;;;;;;;5068520;28;20128;-86
2021/10/22 06:36:29;;;;;;;9.07;1.77;;;;;;;;;;5064507;28;20057;-87
2021/10/22 06:38:54;;;;;;;7.50;1.43;;;;;;;;;;5038651;28;20067;-86
2021/10/22 06:41:19;;;;;;;13.53;2.10;;;;;;;;;;5040311;28;20129;-86
2021/10/22 06:43:45;;;;;;;8.30;1.80;;;;;;;;;;5038533;28;20009;-87
2021/10/22 06:46:11;;;;;;;8.30;1.37;;;;;;;;;;5040235;28;20017;-86
2021/10/22 06:48:40;;;;;;;8.87;1.93;;;;;;;;;;5039910;28;20079;-88
2021/10/22 06:51:07;;;;;;;10.60;1.73;;;;;;;;;;5072018;28;21641;-87
2021/10/22 06:53:32;;;;;;;8.73;1.80;;;;;;;;;;5039801;28;20014;-87
2021/10/22 06:55:58;;;;;;;9.17;2.00;;;;;;;;;;5072098;28;20013;-87
2021/10/22 06:58:23;;;;;;;7.17;1.53;;;;;;;;;;5072197;28;20500;-87
2021/10/22 07:00:49;;;;;;;8.00;1.50;;;;;;;;;;5038669;28;20022;-87
2021/10/22 07:03:19;;;;;;;5.53;1.33;;;;;;;;;;5071915;28;20499;-87
2021/10/22 07:08:11;;;;;;;10.17;2.47;;;;;;;;;;5023124;28;20045;-87
2021/10/22 07:10:37;;;;;;;11.63;1.80;;;;;;;;;;5037658;28;20025;-87
2021/10/22 07:13:03;;;;;;;13.40;2.10;;;;;;;;;;5038285;28;20408;-86
2021/10/22 07:15:29;;;;;;;11.20;1.90;;;;;;;;;;5072026;28;20480;-87
2021/10/22 07:17:59;;;;;;;18.03;2.27;;;;;;;;;;5072178;28;20079;-86
2021/10/22 07:20:25;;;;;;;5.50;1.33;;;;;;;;;;5057692;28;20030;-87
2021/10/22 07:25:48;;;;;;;13.40;1.70;;;;;;;;;;5024455;28;20037;-86
2021/10/22 07:28:15;;;;;;;10.47;2.07;;;;;;;;;;5071866;28;20025;-86
2021/10/22 07:30:43;;;;;;;13.70;2.17;;;;;;;;;;5038295;28;20017;-87
2021/10/22 07:33:08;;;;;;;7.87;2.23;;;;;;;;;;5038295;28;20032;-87
2021/10/22 07:35:37;;;;;;;11.73;1.83;;;;;;;;;;5021944;28;20096;-87
2021/10/22 07:38:03;;;;;;;10.97;3.00;;;;;;;;;;5071641;28;20032;-87
2021/10/22 07:40:28;;;;;;;13.77;2.20;;;;;;;;;;5035037;28;20029;-87
2021/10/22 07:42:53;;;;;;;7.50;1.60;;;;;;;;;;5061989;28;20485;-87
2021/10/22 07:45:19;;;;;;;8.90;1.90;;;;;;;;;;5029966;28;20029;-86
2021/10/22 07:47:44;;;;;;;14.23;2.17;;;;;;;;;;5035005;28;20024;-87
2021/10/22 07:50:09;;;;;;;10.43;2.03;;;;;;;;;;5035117;28;20041;-87
2021/10/22 07:52:35;;;;;;;8.10;2.10;;;;;;;;;;5034899;28;20021;-86
2021/10/22 07:55:00;;;;;;;9.40;2.27;;;;;;;;;;5068431;28;20389;-87
2021/10/22 07:57:27;;;;;;;10.17;1.87;;;;;;;;;;5034911;28;20057;-87
2021/10/22 07:59:52;;;;;;;11.53;2.13;;;;;;;;;;5034707;28;20026;-87
2021/10/22 08:02:17;;;;;;;9.00;1.90;;;;;;;;;;5034620;28;20036;-87
2021/10/22 08:04:44;;;;;;;14.90;2.47;;;;;;;;;;5034654;28;20095;-87
2021/10/22 08:07:09;;;;;;;8.07;1.60;;;;;;;;;;5035780;28;20021;-87
2021/10/22 08:09:35;;;;;;;10.03;1.63;;;;;;;;;;5053885;28;20375;-87
2021/10/22 08:12:01;;;;;;;18.47;2.37;;;;;;;;;;5034817;28;20026;-87
2021/10/22 08:14:26;;;;;;;8.17;1.80;;;;;;;;;;5068017;28;20026;-87
2021/10/22 08:16:51;;;;;;;12.93;2.33;;;;;;;;;;5059858;28;20051;-87
2021/10/22 08:19:18;;;;;;;11.13;2.20;;;;;;;;;;5034700;28;20068;-87
2021/10/22 08:24:08;;;;;;;10.07;1.90;;;;;;;;;;5035522;28;20026;-87
2021/10/22 08:26:34;;;;;;;10.53;2.20;;;;;;;;;;5067607;28;20029;-87
2021/10/22 08:28:59;;;;;;;15.50;2.17;;;;;;;;;;5064853;28;20025;-87
2021/10/22 08:31:25;;;;;;;4.90;1.60;;;;;;;;;;5055289;28;20029;-86
2021/10/22 08:33:50;;;;;;;10.53;1.90;;;;;;;;;;5066076;28;20489;-87
2021/10/22 08:36:16;;;;;;;14.83;2.07;;;;;;;;;;5034300;28;20035;-87
2021/10/22 08:38:41;;;;;;;8.93;1.80;;;;;;;;;;5066745;28;20519;-86
2021/10/22 08:41:12;;;;;;;13.47;1.80;;;;;;;;;;5067292;28;20049;-87
2021/10/22 08:43:39;;;;;;;15.07;2.03;;;;;;;;;;5067169;28;20021;-86
2021/10/22 08:46:06;;;;;;;15.07;2.50;;;;;;;;;;5067205;28;20430;-87
2021/10/22 08:48:31;;;;;;;13.67;1.83;;;;;;;;;;5067232;28;20029;-86
2021/10/22 08:50:57;;;;;;;7.40;1.53;;;;;;;;;;5052589;28;20025;-86
2021/10/22 08:53:22;;;;;;;7.50;1.57;;;;;;;;;;5062149;28;20021;-87
2021/10/22 08:55:48;;;;;;;9.40;1.73;;;;;;;;;;5064435;28;20021;-87
2021/10/22 08:58:15;;;;;;;9.43;2.03;;;;;;;;;;5067020;28;20029;-86
2021/10/22 09:00:40;;;;;;;10.30;1.45;;;;;;;;;;5033723;28;20026;-87
2021/10/22 09:03:10;;;;;;;11.70;1.85;;;;;;;;;;5033430;28;20030;-87
2021/10/22 09:05:35;;;;;;;8.57;1.83;;;;;;;;;;5066869;28;20021;-87
2021/10/22 09:08:05;;;;;;;8.68;1.30;;;;;;;;;;5066652;28;20389;-87
2021/10/22 09:10:35;;;;;;;7.57;1.48;;;;;;;;;;5033598;28;20071;-87
2021/10/22 09:13:06;;;;;;;10.55;1.73;;;;;;;;;;5033244;28;20022;-86
2021/10/22 09:15:36;;;;;;;9.80;2.03;;;;;;;;;;5033383;28;20112;-87
2021/10/22 09:18:07;;;;;;;13.50;1.65;;;;;;;;;;5032880;28;20080;-86
2021/10/22 09:20:32;;;;;;;10.05;1.38;;;;;;;;;;5020412;28;20489;-87
2021/10/22 09:23:01;;;;;;;4.68;1.00;;;;;;;;;;5033327;28;20053;-87
2021/10/22 09:25:28;;;;;;;8.38;1.17;;;;;;;;;;5032971;28;20017;-87
2021/10/22 09:27:54;;;;;;;8.98;1.80;;;;;;;;;;5033267;28;20114;-86
2021/10/22 09:30:38;;;;;;;10.18;1.92;;;;;;;;;;5033251;28;20116;-87
2021/10/22 09:33:13;;;;;;;6.88;1.75;;;;;;;;;;5033067;28;20041;-86
2021/10/22 09:35:43;;;;;;;7.25;1.20;;;;;;;;;;5033058;28;20021;-86
2021/10/22 09:38:19;;;;;;;11.02;1.40;;;;;;;;;;5033086;28;20025;-86
2021/10/22 09:40:46;;;;;;;6.60;1.05;;;;;;;;;;5032661;28;20075;-87
2021/10/22 09:43:11;;;;;;;7.07;1.48;;;;;;;;;;5032814;28;20473;-86
2021/10/22 09:45:37;;;;;;;7.55;1.42;;;;;;;;;;5032197;28;20109;-87
2021/10/22 09:48:20;;;;;;;8.73;1.45;;;;;;;;;;5032730;28;20031;-86
2021/10/22 09:50:45;;;;;;;7.97;1.23;;;;;;;;;;5032662;28;20017;-86
2021/10/22 09:53:25;;;;;;;8.88;1.10;;;;;;;;;;5032970;28;20032;-86
2021/10/22 09:56:03;;;;;;;7.15;1.08;;;;;;;;;;5032265;28;20021;-87
2021/10/22 09:58:29;;;;;;;8.32;1.95;;;;;;;;;;5032668;28;20473;-87
2021/10/22 10:01:10;;;;;;;7.00;1.63;;;;;;;;;;5032223;28;20083;-86
2021/10/22 10:03:37;;;;;;;12.23;1.40;;;;;;;;;;5019401;28;20017;-86
2021/10/22 10:06:04;;;;;;;10.27;1.40;;;;;;;;;;5032467;28;20109;-86
2021/10/22 10:08:30;;;;;;;6.15;1.38;;;;;;;;;;5032272;28;20405;-86
2021/10/22 10:10:55;;;;;;;8.73;1.42;;;;;;;;;;5065796;28;20026;-87
2021/10/22 10:13:20;;;;;;;10.93;1.35;;;;;;;;;;5032281;28;20021;-86
2021/10/22 10:15:45;;;;;;;14.48;1.30;;;;;;;;;;5032345;28;20025;-87
2021/10/22 10:18:16;;;;;;;9.38;1.20;;;;;;;;;;5032298;28;20033;-86
2021/10/22 10:20:42;;;;;;;7.82;1.35;;;;;;;;;;5032344;28;20034;-86
2021/10/22 10:23:07;;;;;;;5.13;1.00;;;;;;;;;;5059615;28;20049;-86
2021/10/22 10:25:33;;;;;;;7.95;1.17;;;;;;;;;;5065693;28;20381;-86
2021/10/22 10:27:59;;;;;;;11.35;1.48;;;;;;;;;;5032321;28;20030;-86
2021/10/22 10:30:29;;;;;;;8.70;1.23;;;;;;;;;;5032183;28;20449;-86
2021/10/22 10:32:54;;;;;;;13.13;1.50;;;;;;;;;;5032382;28;20040;-87
2021/10/22 10:35:19;;;;;;;9.95;1.45;;;;;;;;;;5032030;28;20033;-87
2021/10/22 10:37:50;;;;;;;8.52;1.60;;;;;;;;;;5032330;28;20028;-86
2021/10/22 10:40:23;;;;;;;7.25;1.63;;;;;;;;;;5065367;28;20128;-86
2021/10/22 10:42:56;;;;;;;9.65;1.35;;;;;;;;;;5032062;28;20022;-87
2021/10/22 10:45:21;;;;;;;8.15;1.20;;;;;;;;;;5032482;28;20060;-86
2021/10/22 10:48:03;;;;;;;4.60;1.00;;;;;;;;;;5033293;28;20009;-86
2021/10/22 10:50:41;;;;;;;13.35;1.95;;;;;;;;;;5036828;28;20014;-86
2021/10/22 10:53:11;;;;;;;8.05;1.08;;;;;;;;;;5032278;28;20033;-86
2021/10/22 10:55:40;;;;;;;9.15;1.40;;;;;;;;;;5036271;28;20481;-87
2021/10/22 10:58:09;;;;;;;8.45;1.83;;;;;;;;;;5032133;28;20026;-87
2021/10/22 11:00:34;;;;;;;6.72;1.25;;;;;;;;;;5037279;28;20029;-86
2021/10/22 11:03:03;;;;;;;5.72;0.82;;;;;;;;;;5031650;28;20469;-87
2021/10/22 11:05:43;;;;;;;9.98;1.65;;;;;;;;;;5031514;28;20088;-86
2021/10/22 11:08:16;;;;;;;12.85;1.02;;;;;;;;;;5051029;28;20124;-87
2021/10/22 11:10:41;;;;;;;;;;;;;;;;;;5044541;28;20419;-87
2021/10/22 11:13:13;;;;;;;13.50;1.15;;;;;;;;;;5071102;28;20319;-87
2021/10/22 11:15:39;;;;;;;11.05;1.42;;;;;;;;;;5034845;28;20267;-87
2021/10/22 11:18:04;;;;;;;6.60;1.02;;;;;;;;;;5035442;28;20079;-86
2021/10/22 11:20:31;;;;;;;5.57;0.93;;;;;;;;;;5058449;28;20029;-86
2021/10/22 11:22:56;;;;;;;5.80;1.20;;;;;;;;;;5035501;28;20025;-87
2021/10/22 11:25:23;;;;;;;6.38;0.93;;;;;;;;;;5068521;28;20017;-86
2021/10/22 11:27:58;;;;;;;6.00;1.10;;;;;;;;;;5035422;28;20022;-87
2021/10/22 11:30:23;;;;;;;11.80;1.55;;;;;;;;;;5029373;28;20372;-87
2021/10/22 11:32:48;;;;;;;6.97;1.30;;;;;;;;;;5035300;28;20022;-87
2021/10/22 11:35:14;;;;;;;7.20;1.08;;;;;;;;;;5068185;28;20071;-87
2021/10/22 11:37:40;;;;;;;6.40;1.15;;;;;;;;;;5068588;28;20527;-87
2021/10/22 11:40:06;;;;;;;7.18;1.35;;;;;;;;;;5027909;28;20076;-86
2021/10/22 11:42:32;;;;;;;3.53;1.13;;;;;;;;;;5021235;28;20018;-87
2021/10/22 11:45:10;;;;;;;8.13;1.05;;;;;;;;;;5068453;28;20435;-86
2021/10/22 11:47:35;;;;;;;5.68;1.00;;;;;;;;;;5033524;28;20352;-87
2021/10/22 11:50:21;;;;;;;12.40;1.20;;;;;;;;;;5035053;28;20079;-87
2021/10/22 11:52:47;;;;;;;7.15;1.17;;;;;;;;;;5021977;28;20009;-87
2021/10/22 11:55:18;;;;;;;7.68;1.73;;;;;;;;;;5068202;28;20060;-86
2021/10/22 11:57:43;;;;;;;7.63;1.40;;;;;;;;;;5034779;28;20108;-87
2021/10/22 12:00:09;;;;;;;5.03;0.98;;;;;;;;;;5067387;28;20049;-87
2021/10/22 12:02:35;;;;;;;10.30;1.27;;;;;;;;;;5034753;28;20021;-87
2021/10/22 12:05:02;;;;;;;6.55;1.30;;;;;;;;;;5034780;28;20018;-87
2021/10/22 12:07:28;;;;;;;6.78;1.17;;;;;;;;;;5067989;28;20043;-87
2021/10/22 12:09:55;;;;;;;3.85;1.05;;;;;;;;;;5034696;28;20013;-87
2021/10/22 12:12:20;;;;;;;5.53;1.20;;;;;;;;;;5068025;28;20465;-86
2021/10/22 12:14:47;;;;;;;2.85;1.00;;;;;;;;;;5034424;28;20022;-87
2021/10/22 12:17:14;;;;;;;6.35;1.25;;;;;;;;;;5034673;28;20469;-86
2021/10/22 12:19:40;;;;;;;9.05;1.17;;;;;;;;;;5034529;28;20388;-86
2021/10/22 12:22:05;;;;;;;6.05;1.20;;;;;;;;;;5029975;28;20093;-87
2021/10/22 12:24:41;;;;;;;4.57;1.20;;;;;;;;;;5026308;28;20071;-87
2021/10/22 12:27:07;;;;;;;6.30;1.33;;;;;;;;;;5033724;28;20532;-87
2021/10/22 12:29:45;;;;;;;3.42;1.20;;;;;;;;;;5034624;28;20014;-87
2021/10/22 12:32:10;;;;;;;7.78;1.55;;;;;;;;;;5034252;28;20022;-87
2021/10/22 12:34:36;;;;;;;8.65;1.58;;;;;;;;;;5034255;28;20468;-87
2021/10/22 12:37:09;;;;;;;9.80;1.40;;;;;;;;;;5033932;28;20037;-87
2021/10/22 12:39:39;;;;;;;7.53;1.60;;;;;;;;;;5035317;28;20080;-87
2021/10/22 12:42:18;;;;;;;5.57;1.30;;;;;;;;;;5067140;28;20028;-87
2021/10/22 12:44:43;;;;;;;6.18;1.30;;;;;;;;;;5067218;28;20029;-87
2021/10/22 12:47:09;;;;;;;13.20;1.55;;;;;;;;;;5034013;28;20427;-87
2021/10/22 12:49:34;;;;;;;8.68;1.88;;;;;;;;;;5066598;28;20091;-87
2021/10/22 12:52:04;;;;;;;5.30;1.25;;;;;;;;;;5033975;28;20025;-87
2021/10/22 12:54:29;;;;;;;8.13;1.25;;;;;;;;;;5053607;28;20114;-87
2021/10/22 12:56:58;;;;;;;8.70;1.38;;;;;;;;;;5067294;28;20122;-87
2021/10/22 12:59:25;;;;;;;15.90;1.65;;;;;;;;;;5033477;28;20112;-87
2021/10/22 13:01:53;;;;;;;8.55;1.10;;;;;;;;;;5033643;28;20029;-86
2021/10/22 13:04:19;;;;;;;4.30;0.90;;;;;;;;;;5033317;28;20025;-87
2021/10/22 13:06:52;;;;;;;9.73;1.45;;;;;;;;;;5033443;28;20024;-87
2021/10/22 13:22:11;;;;;;;5.38;1.08;;;;;;;;;;5021423;28;20087;-86
2021/10/22 13:24:38;;;;;;;7.57;0.70;;;;;;;;;;5033232;28;20021;-86
2021/10/22 13:27:04;;;;;;;5.40;0.90;;;;;;;;;;5061851;28;20033;-87
2021/10/22 13:29:29;;;;;;;5.28;0.75;;;;;;;;;;5025248;28;20378;-87
2021/10/22 13:31:54;;;;;;;6.78;0.73;;;;;;;;;;5066133;28;20567;-87
2021/10/22 13:34:20;;;;;;;5.88;0.80;;;;;;;;;;5057828;28;20025;-87
2021/10/22 13:36:45;;;;;;;7.90;0.90;;;;;;;;;;5031886;28;20491;-87
2021/10/22 13:39:11;;;;;;;6.97;0.90;;;;;;;;;;5018407;28;20029;-86
2021/10/22 13:41:36;;;;;;;6.05;0.70;;;;;;;;;;5034042;28;20427;-87
2021/10/22 13:44:02;;;;;;;2.25;0.60;;;;;;;;;;5065716;28;20021;-86
2021/10/22 13:46:28;;;;;;;5.35;1.00;;;;;;;;;;5032643;28;20020;-87
2021/10/22 13:48:53;;;;;;;5.57;0.70;;;;;;;;;;5032325;28;20492;-87
2021/10/22 13:51:18;;;;;;;8.82;1.00;;;;;;;;;;5032650;28;20021;-87
2021/10/22 13:53:47;;;;;;;3.58;0.80;;;;;;;;;;5031935;28;20059;-87
2021/10/22 13:56:13;;;;;;;6.25;0.70;;;;;;;;;;5066042;28;20099;-86
2021/10/22 13:58:38;;;;;;;5.20;0.82;;;;;;;;;;5053663;28;20017;-87
2021/10/22 14:01:04;;;;;;;3.58;0.68;;;;;;;;;;5064318;28;20026;-86
2021/10/22 14:03:30;;;;;;;4.03;0.65;;;;;;;;;;5062275;28;20018;-86
2021/10/22 14:05:56;;;;;;;4.20;0.70;;;;;;;;;;5032556;28;20377;-87
2021/10/22 14:08:21;;;;;;;3.97;0.70;;;;;;;;;;5065614;28;20527;-87
2021/10/22 14:10:48;;;;;;;4.82;0.80;;;;;;;;;;5032242;28;20025;-87
2021/10/22 14:13:22;;;;;;;6.18;0.93;;;;;;;;;;5032208;28;20057;-87
2021/10/22 14:31:17;;;;;;;10.02;0.98;;;;;;;;;;5033828;28;20053;-87
2021/10/22 14:33:43;;;;;;;7.53;1.00;;;;;;;;;;5033504;28;20049;-87
2021/10/22 14:36:08;;;;;;;4.22;1.15;;;;;;;;;;5032216;28;20034;-87
2021/10/22 14:38:33;;;;;;;3.97;0.85;;;;;;;;;;5033188;28;20030;-87
2021/10/22 14:40:58;;;;;;;9.27;0.88;;;;;;;;;;5065551;28;20013;-87
2021/10/22 14:43:42;;;;;;;8.98;1.00;;;;;;;;;;5033254;28;20499;-86
2021/10/22 14:46:12;;;;;;;3.10;0.90;;;;;;;;;;5020005;28;20022;-87
2021/10/22 14:48:41;;;;;;;7.70;1.30;;;;;;;;;;5065341;28;20022;-87
2021/10/22 14:51:10;;;;;;;5.55;1.00;;;;;;;;;;5036071;28;20017;-86
2021/10/22 14:53:58;;;;;;;6.40;0.77;;;;;;;;;;5037227;28;20076;-87
2021/10/22 14:56:22;;;;;;;16.40;1.20;;;;;;;;;;5025090;28;20040;-86
2021/10/22 14:58:47;;;;;;;5.55;1.00;;;;;;;;;;5037115;28;20025;-86
2021/10/22 15:01:14;;;;;;;4.45;0.85;;;;;;;;;;5068929;28;20389;-86
2021/10/22 15:03:39;;;;;;;5.03;0.90;;;;;;;;;;5035517;28;20028;-87
2021/10/22 15:06:05;;;;;;;4.85;1.17;;;;;;;;;;5069009;28;20021;-86
2021/10/22 15:08:30;;;;;;;10.60;1.00;;;;;;;;;;5068957;28;20009;-86
2021/10/22 15:10:55;;;;;;;5.30;1.17;;;;;;;;;;5035620;28;20017;-87
2021/10/22 15:13:20;;;;;;;5.50;1.10;;;;;;;;;;5035508;28;20100;-87